createdAt,value
2018-04-14T00:00:09.767Z,100518.91
2018-04-14T00:01:12.271Z,100528.96
2018-04-14T00:02:14.765Z,100526.38
2018-04-14T00:03:17.290Z,100527.28
2018-04-14T00:04:19.763Z,100523.55
2018-04-14T00:05:22.267Z,100527.28
2018-04-14T00:06:24.753Z,100522.34
2018-04-14T00:07:27.241Z,100525.44
2018-04-14T00:08:29.767Z,100528.19
2018-04-14T00:09:32.265Z,100533.30
2018-04-14T00:10:34.739Z,100537.20
2018-04-14T00:11:37.215Z,100536.96
2018-04-14T00:12:39.700Z,100533.40
2018-04-14T00:13:42.192Z,100532.97
2018-04-14T00:14:44.702Z,100542.61
2018-04-14T00:15:47.188Z,100528.59
2018-04-14T00:16:49.695Z,100534.11
2018-04-14T00:17:52.206Z,100535.42
2018-04-14T00:18:54.767Z,100533.80
2018-04-14T00:19:57.330Z,100536.73
2018-04-14T00:20:59.806Z,100533.73
2018-04-14T00:22:02.347Z,100535.28
2018-04-14T00:23:04.823Z,100534.47
2018-04-14T00:24:07.373Z,100533.43
2018-04-14T00:25:09.826Z,100537.56
2018-04-14T00:26:12.317Z,100529.70
2018-04-14T00:27:14.797Z,100535.95
2018-04-14T00:28:17.281Z,100538.87
2018-04-14T00:29:19.823Z,100539.45
2018-04-14T00:30:22.339Z,100535.08
2018-04-14T00:31:24.832Z,100542.13
2018-04-14T00:32:27.320Z,100540.92
2018-04-14T00:33:29.823Z,100533.22
2018-04-14T00:34:32.346Z,100545.22
2018-04-14T00:35:34.822Z,100546.77
2018-04-14T00:36:37.309Z,100545.13
2018-04-14T00:37:39.795Z,100544.72
2018-04-14T00:38:42.304Z,100546.27
2018-04-14T00:39:44.818Z,100549.19
2018-04-14T00:40:47.321Z,100545.63
2018-04-14T00:41:49.798Z,100549.99
2018-04-14T00:42:52.284Z,100547.80
2018-04-14T00:43:54.856Z,100551.70
2018-04-14T00:44:57.380Z,100545.79
2018-04-14T00:46:00.001Z,100550.09
2018-04-14T00:47:02.556Z,100546.93
2018-04-14T00:48:05.102Z,100551.23
2018-04-14T00:49:07.593Z,100552.61
2018-04-14T00:50:10.101Z,100551.80
2018-04-14T00:51:12.597Z,100542.73
2018-04-14T00:52:15.098Z,100546.86
2018-04-14T00:53:29.585Z,100549.21
2018-04-14T00:54:32.075Z,100541.28
2018-04-14T00:55:34.613Z,100550.92
2018-04-14T00:56:37.108Z,100542.02
2018-04-14T00:57:39.626Z,100549.88
2018-04-14T00:58:42.114Z,100543.33
2018-04-14T00:59:44.621Z,100542.08
2018-04-14T01:00:47.102Z,100551.32
2018-04-14T01:01:49.605Z,100550.52
2018-04-14T01:02:52.119Z,100546.38
2018-04-14T01:03:54.627Z,100555.62
2018-04-14T01:04:57.118Z,100546.95
2018-04-14T01:05:59.619Z,100546.95
2018-04-14T01:07:02.132Z,100550.68
2018-04-14T01:08:04.620Z,100549.30
2018-04-14T01:09:07.145Z,100546.14
2018-04-14T01:10:09.671Z,100542.59
2018-04-14T01:11:12.161Z,100535.27
2018-04-14T01:12:14.669Z,100541.75
2018-04-14T01:13:17.163Z,100536.41
2018-04-14T01:14:19.638Z,100542.48
2018-04-14T01:15:22.162Z,100541.27
2018-04-14T01:16:24.649Z,100538.69
2018-04-14T01:17:27.137Z,100542.81
2018-04-14T01:18:29.610Z,100542.41
2018-04-14T01:19:32.083Z,100536.91
2018-04-14T01:20:34.591Z,100545.91
2018-04-14T01:21:37.097Z,100543.31
2018-04-14T01:22:39.646Z,100544.69
2018-04-14T01:23:42.106Z,100548.02
2018-04-14T01:24:44.592Z,100546.23
2018-04-14T01:25:47.113Z,100546.80
2018-04-14T01:26:49.605Z,100546.41
2018-04-14T01:27:52.093Z,100552.08
2018-04-14T01:28:54.674Z,100547.95
2018-04-14T01:29:57.253Z,100551.67
2018-04-14T01:30:59.776Z,100549.66
2018-04-14T01:32:02.280Z,100554.59
2018-04-14T01:33:04.755Z,100549.82
2018-04-14T01:34:07.222Z,100554.36
2018-04-14T01:35:09.702Z,100547.06
2018-04-14T01:36:12.202Z,100545.45
2018-04-14T01:37:14.689Z,100546.83
2018-04-14T01:38:17.159Z,100551.77
2018-04-14T01:39:19.664Z,100553.72
2018-04-14T01:40:22.148Z,100546.59
2018-04-14T01:41:24.666Z,100552.10
2018-04-14T01:42:27.142Z,100548.38
2018-04-14T01:43:29.709Z,100547.16
2018-04-14T01:44:32.197Z,100553.08
2018-04-14T01:45:34.671Z,100558.98
2018-04-14T01:46:37.157Z,100552.44
2018-04-14T01:47:39.645Z,100556.56
2018-04-14T01:48:42.119Z,100553.81
2018-04-14T01:49:44.619Z,100550.48
2018-04-14T01:50:47.122Z,100546.36
2018-04-14T01:51:49.645Z,100555.59
2018-04-14T01:52:52.135Z,100555.19
2018-04-14T01:53:54.635Z,100559.32
2018-04-14T01:54:57.139Z,100552.44
2018-04-14T01:55:59.632Z,100556.73
2018-04-14T01:57:02.178Z,100558.52
2018-04-14T01:58:04.736Z,100550.41
2018-04-14T01:59:07.215Z,100557.30
2018-04-14T02:00:09.753Z,100553.70
2018-04-14T02:01:12.313Z,100557.60
2018-04-14T02:02:14.837Z,100562.54
2018-04-14T02:03:17.325Z,100558.98
2018-04-14T02:04:19.827Z,100554.45
2018-04-14T02:05:22.320Z,100554.61
2018-04-14T02:06:24.817Z,100555.98
2018-04-14T02:07:27.322Z,100554.78
2018-04-14T02:08:29.817Z,100554.78
2018-04-14T02:09:32.290Z,100554.94
2018-04-14T02:10:34.772Z,100557.86
2018-04-14T02:11:37.261Z,100559.64
2018-04-14T02:12:39.769Z,100553.33
2018-04-14T02:13:42.276Z,100560.78
2018-04-14T02:14:44.746Z,100555.84
2018-04-14T02:15:47.234Z,100555.84
2018-04-14T02:16:49.744Z,100550.50
2018-04-14T02:17:52.234Z,100552.45
2018-04-14T02:18:54.741Z,100551.88
2018-04-14T02:19:57.229Z,100552.05
2018-04-14T02:20:59.713Z,100547.67
2018-04-14T02:22:02.261Z,100551.80
2018-04-14T02:23:04.850Z,100550.43
2018-04-14T02:24:07.336Z,100554.16
2018-04-14T02:25:09.828Z,100555.53
2018-04-14T02:26:12.298Z,100552.78
2018-04-14T02:27:14.789Z,100564.60
2018-04-14T02:28:17.338Z,100563.39
2018-04-14T02:29:19.815Z,100560.64
2018-04-14T02:30:22.358Z,100569.47
2018-04-14T02:31:24.918Z,100567.52
2018-04-14T02:32:27.417Z,100562.75
2018-04-14T02:33:29.924Z,100561.38
2018-04-14T02:34:32.427Z,100561.94
2018-04-14T02:35:34.934Z,100559.19
2018-04-14T02:36:37.440Z,100555.46
2018-04-14T02:37:39.925Z,100558.62
2018-04-14T02:38:42.421Z,100560.56
2018-04-14T02:39:44.925Z,100555.63
2018-04-14T02:40:47.395Z,100562.91
2018-04-14T02:41:49.893Z,100560.73
2018-04-14T02:42:52.367Z,100564.70
2018-04-14T02:43:54.873Z,100562.51
2018-04-14T02:44:57.367Z,100566.64
2018-04-14T02:45:59.873Z,100569.39
2018-04-14T02:47:02.354Z,100564.29
2018-04-14T02:48:04.845Z,100567.45
2018-04-14T02:49:07.367Z,100567.05
2018-04-14T02:50:09.876Z,100570.37
2018-04-14T02:51:12.365Z,100566.00
2018-04-14T02:52:14.865Z,100574.09
2018-04-14T02:53:17.364Z,100570.13
2018-04-14T02:54:19.873Z,100572.48
2018-04-14T02:55:22.346Z,100571.84
2018-04-14T02:56:24.829Z,100570.30
2018-04-14T02:57:27.380Z,100565.92
2018-04-14T02:58:29.887Z,100569.48
2018-04-14T02:59:32.429Z,100567.60
2018-04-14T03:00:34.964Z,100575.45
2018-04-14T03:01:37.443Z,100577.81
2018-04-14T03:02:39.981Z,100575.45
2018-04-14T03:03:42.485Z,100570.12
2018-04-14T03:04:44.998Z,100575.22
2018-04-14T03:05:47.471Z,100573.03
2018-04-14T03:06:50.025Z,100572.63
2018-04-14T03:07:52.517Z,100569.88
2018-04-14T03:08:54.998Z,100571.42
2018-04-14T03:09:57.506Z,100579.28
2018-04-14T03:11:00.028Z,100576.12
2018-04-14T03:12:02.531Z,100579.28
2018-04-14T03:13:05.025Z,100582.77
2018-04-14T03:14:07.508Z,100579.84
2018-04-14T03:15:10.029Z,100580.98
2018-04-14T03:16:12.513Z,100585.52
2018-04-14T03:17:14.986Z,100584.70
2018-04-14T03:18:17.468Z,100586.09
2018-04-14T03:19:19.956Z,100585.11
2018-04-14T03:20:22.479Z,100583.73
2018-04-14T03:21:24.982Z,100588.67
2018-04-14T03:22:27.460Z,100590.05
2018-04-14T03:23:29.963Z,100596.94
2018-04-14T03:24:32.461Z,100590.45
2018-04-14T03:25:35.827Z,100595.55
2018-04-14T03:26:38.335Z,100591.42
2018-04-14T03:27:40.819Z,100595.16
2018-04-14T03:28:43.343Z,100597.34
2018-04-14T03:29:45.828Z,100592.40
2018-04-14T03:30:48.347Z,100594.18
2018-04-14T03:31:50.819Z,100601.62
2018-04-14T03:32:53.302Z,100592.97
2018-04-14T03:33:55.802Z,100596.69
2018-04-14T03:34:58.298Z,100592.16
2018-04-14T03:36:00.793Z,100593.53
2018-04-14T03:37:03.295Z,100591.76
2018-04-14T03:38:05.767Z,100597.27
2018-04-14T03:39:08.257Z,100588.60
2018-04-14T03:40:10.744Z,100598.23
2018-04-14T03:41:13.256Z,100590.14
2018-04-14T03:42:15.752Z,100592.49
2018-04-14T03:43:18.236Z,100592.09
2018-04-14T03:44:20.725Z,100593.87
2018-04-14T03:45:23.218Z,100594.03
2018-04-14T03:46:25.752Z,100602.30
2018-04-14T03:47:28.239Z,100601.88
2018-04-14T03:48:30.714Z,100608.93
2018-04-14T03:49:33.187Z,100611.69
2018-04-14T03:50:35.688Z,100611.28
2018-04-14T03:51:38.236Z,100608.53
2018-04-14T03:52:40.738Z,100612.66
2018-04-14T03:53:43.245Z,100611.05
2018-04-14T03:54:45.737Z,100610.48
2018-04-14T03:55:48.246Z,100618.33
2018-04-14T03:56:50.739Z,100616.14
2018-04-14T03:57:53.228Z,100616.95
2018-04-14T03:58:55.733Z,100615.58
2018-04-14T03:59:58.243Z,100617.59
2018-04-14T04:01:00.733Z,100618.48
2018-04-14T04:02:03.253Z,100617.82
2018-04-14T04:03:05.759Z,100620.99
2018-04-14T04:04:08.342Z,100621.05
2018-04-14T04:05:10.819Z,100624.93
2018-04-14T04:06:13.433Z,100625.66
2018-04-14T04:07:15.926Z,100630.27
2018-04-14T04:08:18.425Z,100632.52
2018-04-14T04:09:20.909Z,100634.86
2018-04-14T04:10:23.409Z,100636.95
2018-04-14T04:11:25.881Z,100635.91
2018-04-14T04:12:28.392Z,100634.48
2018-04-14T04:13:30.896Z,100635.92
2018-04-14T04:14:33.386Z,100636.40
2018-04-14T04:15:35.923Z,100634.86
2018-04-14T04:16:38.386Z,100638.02
2018-04-14T04:17:40.884Z,100635.27
2018-04-14T04:18:55.155Z,100641.81
2018-04-14T04:20:09.655Z,100643.44
2018-04-14T04:21:24.085Z,100646.35
2018-04-14T04:22:38.268Z,100652.44
2018-04-14T04:23:52.706Z,100648.30
2018-04-14T04:26:33.319Z,100649.37
2018-04-14T04:27:35.831Z,100647.19
2018-04-14T04:28:38.326Z,100646.95
2018-04-14T04:29:40.795Z,100651.24
2018-04-14T04:30:43.309Z,100658.70
2018-04-14T04:31:45.801Z,100662.43
2018-04-14T04:32:48.307Z,100666.32
2018-04-14T04:33:50.799Z,100657.95
2018-04-14T04:34:53.326Z,100666.79
2018-04-14T04:35:55.880Z,100670.11
2018-04-14T04:36:58.355Z,100671.09
2018-04-14T04:38:00.822Z,100672.06
2018-04-14T04:39:03.777Z,100671.78
2018-04-14T04:40:06.259Z,100672.92
2018-04-14T04:41:08.780Z,100676.09
2018-04-14T04:42:11.303Z,100671.95
2018-04-14T04:43:13.857Z,100672.36
2018-04-14T04:44:16.326Z,100678.60
2018-04-14T04:45:18.798Z,100673.98
2018-04-14T04:46:21.281Z,100672.20
2018-04-14T04:47:23.842Z,100671.97
2018-04-14T04:48:26.347Z,100673.34
2018-04-14T04:49:28.871Z,100673.11
2018-04-14T04:50:31.384Z,100674.25
2018-04-14T04:51:33.979Z,100675.45
2018-04-14T04:52:36.468Z,100675.45
2018-04-14T04:53:38.996Z,100677.41
2018-04-14T04:54:41.537Z,100677.00
2018-04-14T04:55:44.080Z,100677.56
2018-04-14T04:56:46.565Z,100684.45
2018-04-14T04:57:49.085Z,100686.41
2018-04-14T04:58:51.559Z,100687.78
2018-04-14T04:59:54.082Z,100682.84
2018-04-14T05:00:56.578Z,100679.92
2018-04-14T05:01:59.069Z,100686.80
2018-04-14T05:03:01.575Z,100690.37
2018-04-14T05:04:04.086Z,100695.07
2018-04-14T05:05:06.615Z,100695.07
2018-04-14T05:06:09.087Z,100696.04
2018-04-14T05:07:11.577Z,100702.85
2018-04-14T05:08:14.079Z,100701.64
2018-04-14T05:09:16.558Z,100701.40
2018-04-14T05:10:19.083Z,100710.80
2018-04-14T05:11:21.598Z,100710.69
2018-04-14T05:12:24.083Z,100719.52
2018-04-14T05:13:26.568Z,100713.45
2018-04-14T05:14:29.064Z,100717.84
2018-04-14T05:15:31.614Z,100710.29
2018-04-14T05:16:34.194Z,100711.75
2018-04-14T05:17:36.857Z,100713.62
2018-04-14T05:18:39.365Z,100721.23
2018-04-14T05:19:41.868Z,100721.56
2018-04-14T05:20:44.401Z,100718.32
2018-04-14T05:21:46.887Z,100724.56
2018-04-14T05:22:49.377Z,100720.92
2018-04-14T05:23:51.851Z,100724.98
2018-04-14T05:24:54.318Z,100718.41
2018-04-14T05:25:56.928Z,100728.11
2018-04-14T05:26:59.417Z,100732.16
2018-04-14T05:28:01.946Z,100735.24
2018-04-14T05:29:04.505Z,100728.12
2018-04-14T05:30:06.997Z,100725.93
2018-04-14T05:31:09.510Z,100732.41
2018-04-14T05:32:12.082Z,100727.39
2018-04-14T05:33:14.641Z,100730.47
2018-04-14T05:34:17.206Z,100733.95
2018-04-14T05:35:19.767Z,100733.80
2018-04-14T05:36:22.322Z,100734.12
2018-04-14T05:37:24.891Z,100732.34
2018-04-14T05:38:27.443Z,100737.44
2018-04-14T05:39:30.003Z,100736.80
2018-04-14T05:40:32.565Z,100744.24
2018-04-14T05:41:35.075Z,100742.70
2018-04-14T05:42:37.583Z,100738.90
2018-04-14T05:43:40.067Z,100744.94
2018-04-14T05:44:42.566Z,100746.75
2018-04-14T05:45:45.062Z,100747.45
2018-04-14T05:46:47.564Z,100747.05
2018-04-14T05:47:50.046Z,100744.05
2018-04-14T05:48:52.538Z,100749.56
2018-04-14T05:49:55.030Z,100746.97
2018-04-14T05:50:57.517Z,100744.95
2018-04-14T05:52:00.072Z,100745.27
2018-04-14T05:53:02.565Z,100743.09
2018-04-14T05:54:05.042Z,100747.22
2018-04-14T05:55:07.524Z,100753.53
2018-04-14T05:56:10.032Z,100749.80
2018-04-14T05:57:12.541Z,100755.15
2018-04-14T05:58:15.010Z,100750.86
2018-04-14T05:59:17.519Z,100752.80
2018-04-14T06:00:20.017Z,100751.27
2018-04-14T06:01:22.505Z,100754.02
2018-04-14T06:02:25.047Z,100758.55
2018-04-14T06:03:27.555Z,100758.71
2018-04-14T06:04:30.035Z,100756.36
2018-04-14T06:05:32.574Z,100753.05
2018-04-14T06:06:35.074Z,100750.29
2018-04-14T06:07:37.597Z,100756.20
2018-04-14T06:08:40.107Z,100754.26
2018-04-14T06:09:42.579Z,100749.16
2018-04-14T06:10:45.073Z,100753.69
2018-04-14T06:11:47.565Z,100757.81
2018-04-14T06:12:50.085Z,100758.63
2018-04-14T06:13:52.644Z,100764.94
2018-04-14T06:14:55.222Z,100765.51
2018-04-14T06:15:57.712Z,100772.23
2018-04-14T06:17:00.205Z,100770.85
2018-04-14T06:18:02.792Z,100774.98
2018-04-14T06:19:05.278Z,100769.88
2018-04-14T06:20:07.769Z,100774.58
2018-04-14T06:21:10.252Z,100770.05
2018-04-14T06:22:12.841Z,100774.17
2018-04-14T06:23:15.282Z,100772.39
2018-04-14T06:24:17.774Z,100779.52
2018-04-14T06:25:20.280Z,100777.73
2018-04-14T06:26:22.763Z,100782.84
2018-04-14T06:27:25.311Z,100783.64
2018-04-14T06:28:27.851Z,100784.21
2018-04-14T06:29:30.432Z,100783.08
2018-04-14T06:30:32.943Z,100788.45
2018-04-14T06:31:35.436Z,100783.84
2018-04-14T06:32:37.962Z,100786.83
2018-04-14T06:33:40.491Z,100787.23
2018-04-14T06:34:43.024Z,100785.64
2018-04-14T06:35:45.521Z,100789.92
2018-04-14T06:36:48.031Z,100793.00
2018-04-14T06:37:50.523Z,100789.27
2018-04-14T06:38:53.049Z,100796.47
2018-04-14T06:39:55.541Z,100797.06
2018-04-14T06:40:58.080Z,100792.77
2018-04-14T06:42:00.559Z,100792.52
2018-04-14T06:43:03.096Z,100792.61
2018-04-14T06:44:05.680Z,100791.88
2018-04-14T06:45:08.125Z,100788.79
2018-04-14T06:46:10.675Z,100789.84
2018-04-14T06:47:13.235Z,100794.21
2018-04-14T06:48:15.728Z,100795.75
2018-04-14T06:49:18.246Z,100798.34
2018-04-14T06:50:20.740Z,100801.38
2018-04-14T06:51:23.226Z,100797.23
2018-04-14T06:52:25.759Z,100797.23
2018-04-14T06:53:28.275Z,100800.97
2018-04-14T06:54:30.795Z,100803.72
2018-04-14T06:55:33.309Z,100804.94
2018-04-14T06:56:35.815Z,100804.53
2018-04-14T06:57:38.298Z,100804.53
2018-04-14T06:58:40.887Z,100805.23
2018-04-14T06:59:43.392Z,100810.34
2018-04-14T07:00:45.885Z,100814.88
2018-04-14T07:01:48.387Z,100814.47
2018-04-14T07:02:50.862Z,100816.82
2018-04-14T07:03:53.373Z,100811.72
2018-04-14T07:04:55.881Z,100819.17
2018-04-14T07:05:58.395Z,100815.61
2018-04-14T07:07:00.957Z,100822.90
2018-04-14T07:08:03.520Z,100820.30
2018-04-14T07:09:06.846Z,100821.69
2018-04-14T07:10:09.349Z,100824.60
2018-04-14T07:11:11.867Z,100823.80
2018-04-14T07:12:14.375Z,100828.33
2018-04-14T07:13:16.901Z,100827.52
2018-04-14T07:14:19.378Z,100828.09
2018-04-14T07:15:21.886Z,100833.59
2018-04-14T07:16:24.406Z,100834.98
2018-04-14T07:17:26.901Z,100830.60
2018-04-14T07:18:29.401Z,100827.04
2018-04-14T07:19:31.893Z,100828.58
2018-04-14T07:20:34.415Z,100830.77
2018-04-14T07:21:36.911Z,100836.27
2018-04-14T07:22:39.407Z,100829.55
2018-04-14T07:23:41.908Z,100838.22
2018-04-14T07:24:44.405Z,100828.58
2018-04-14T07:25:46.920Z,100836.84
2018-04-14T07:26:49.455Z,100836.27
2018-04-14T07:27:51.954Z,100832.71
2018-04-14T07:28:54.441Z,100834.25
2018-04-14T07:29:56.972Z,100835.47
2018-04-14T07:30:59.531Z,100832.88
2018-04-14T07:32:02.039Z,100838.55
2018-04-14T07:33:04.536Z,100834.81
2018-04-14T07:34:07.030Z,100838.55
2018-04-14T07:35:09.529Z,100832.63
2018-04-14T07:36:12.068Z,100839.92
2018-04-14T07:37:14.552Z,100840.48
2018-04-14T07:38:17.026Z,100846.23
2018-04-14T07:39:19.517Z,100843.89
2018-04-14T07:40:22.007Z,100842.27
2018-04-14T07:41:24.522Z,100850.13
2018-04-14T07:42:27.009Z,100849.72
2018-04-14T07:43:29.479Z,100850.53
2018-04-14T07:44:31.954Z,100849.72
2018-04-14T07:45:34.499Z,100853.86
2018-04-14T07:46:37.007Z,100855.64
2018-04-14T07:47:39.497Z,100863.09
2018-04-14T07:48:41.990Z,100856.20
2018-04-14T07:49:44.485Z,100858.55
2018-04-14T07:50:46.977Z,100861.88
2018-04-14T07:51:49.480Z,100861.31
2018-04-14T07:52:51.967Z,100862.84
2018-04-14T07:53:54.459Z,100861.88
2018-04-14T07:54:56.960Z,100862.69
2018-04-14T07:55:59.443Z,100859.37
2018-04-14T07:57:01.978Z,100862.12
2018-04-14T07:58:04.536Z,100860.91
2018-04-14T07:59:07.096Z,100863.91
2018-04-14T08:00:09.656Z,100866.66
2018-04-14T08:01:12.141Z,100865.44
2018-04-14T08:02:14.654Z,100870.95
2018-04-14T08:03:17.144Z,100863.09
2018-04-14T08:04:19.653Z,100869.17
2018-04-14T08:05:22.163Z,100871.92
2018-04-14T08:06:24.690Z,100876.05
2018-04-14T08:07:27.260Z,100874.27
2018-04-14T08:08:29.766Z,100871.92
2018-04-14T08:09:32.236Z,100876.46
2018-04-14T08:10:34.727Z,100873.30
2018-04-14T08:11:37.355Z,100870.14
2018-04-14T08:12:39.765Z,100875.25
2018-04-14T08:13:42.280Z,100871.92
2018-04-14T08:14:44.756Z,100878.97
2018-04-14T08:15:47.252Z,100878.41
2018-04-14T08:16:49.767Z,100873.87
2018-04-14T08:17:52.296Z,100879.78
2018-04-14T08:18:54.811Z,100878.24
2018-04-14T08:19:57.297Z,100874.27
2018-04-14T08:20:59.800Z,100882.94
2018-04-14T08:22:02.278Z,100882.94
2018-04-14T08:23:04.773Z,100884.72
2018-04-14T08:24:07.283Z,100889.67
2018-04-14T08:25:09.875Z,100883.75
2018-04-14T08:26:12.362Z,100882.38
2018-04-14T08:27:14.888Z,100886.51
2018-04-14T08:28:17.452Z,100887.48
2018-04-14T08:29:19.963Z,100887.48
2018-04-14T08:30:22.451Z,100886.09
2018-04-14T08:31:24.929Z,100888.86
2018-04-14T08:32:27.466Z,100883.51
2018-04-14T08:33:30.302Z,100885.13
2018-04-14T08:34:32.797Z,100887.08
2018-04-14T08:35:35.298Z,100890.23
2018-04-14T08:36:37.824Z,100892.98
2018-04-14T08:37:40.345Z,100889.83
2018-04-14T08:38:42.880Z,100894.52
2018-04-14T08:39:45.373Z,100893.72
2018-04-14T08:40:47.854Z,100897.69
2018-04-14T08:41:50.353Z,100893.15
2018-04-14T08:42:52.883Z,100898.82
2018-04-14T08:43:55.393Z,100895.09
2018-04-14T08:44:59.035Z,100903.36
2018-04-14T08:46:01.901Z,100901.98
2018-04-14T08:47:04.465Z,100896.88
2018-04-14T08:48:06.961Z,100904.17
2018-04-14T08:49:10.421Z,100908.70
2018-04-14T08:50:12.947Z,100906.52
2018-04-14T08:51:15.433Z,100904.98
2018-04-14T08:52:17.925Z,100903.60
2018-04-14T08:53:20.430Z,100897.52
2018-04-14T08:54:22.964Z,100904.01
2018-04-14T08:55:25.454Z,100897.28
2018-04-14T08:56:28.241Z,100900.60
2018-04-14T08:57:30.817Z,100901.98
2018-04-14T08:58:33.301Z,100899.62
2018-04-14T08:59:35.856Z,100905.70
2018-04-14T09:00:38.439Z,100900.20
2018-04-14T09:01:41.303Z,100903.92
2018-04-14T09:02:45.406Z,100899.80
2018-04-14T09:03:47.905Z,100898.02
2018-04-14T09:04:52.035Z,100896.72
2018-04-14T09:05:55.705Z,100901.58
2018-04-14T09:06:58.182Z,100903.11
2018-04-14T09:08:00.650Z,100898.02
2018-04-14T09:09:03.658Z,100906.03
2018-04-14T09:10:06.413Z,100908.14
2018-04-14T09:11:08.927Z,100903.44
2018-04-14T09:12:11.425Z,100902.06
2018-04-14T09:13:14.833Z,100913.48
2018-04-14T09:14:17.407Z,100903.03
2018-04-14T09:15:19.926Z,100909.11
2018-04-14T09:16:22.437Z,100906.19
2018-04-14T09:17:25.071Z,100906.35
2018-04-14T09:18:27.580Z,100910.08
2018-04-14T09:19:30.073Z,100903.77
2018-04-14T09:20:32.592Z,100908.30
2018-04-14T09:21:35.101Z,100909.11
2018-04-14T09:22:37.589Z,100906.92
2018-04-14T09:23:40.072Z,100906.35
2018-04-14T09:24:42.557Z,100909.92
2018-04-14T09:25:45.506Z,100909.35
2018-04-14T09:26:48.537Z,100907.16
2018-04-14T09:27:51.968Z,100907.97
2018-04-14T09:28:54.493Z,100912.92
2018-04-14T09:29:57.004Z,100911.95
2018-04-14T09:31:00.638Z,100910.97
2018-04-14T09:32:03.142Z,100911.37
2018-04-14T09:33:05.653Z,100905.30
2018-04-14T09:34:08.171Z,100904.09
2018-04-14T09:35:10.650Z,100902.30
2018-04-14T09:36:13.159Z,100903.52
2018-04-14T09:37:15.711Z,100903.11
2018-04-14T09:38:18.206Z,100907.66
2018-04-14T09:39:20.709Z,100913.16
2018-04-14T09:40:23.240Z,100912.59
2018-04-14T09:41:25.771Z,100908.63
2018-04-14T09:42:28.284Z,100914.70
2018-04-14T09:43:30.773Z,100915.51
2018-04-14T09:44:33.251Z,100917.45
2018-04-14T09:45:35.751Z,100914.13
2018-04-14T09:46:38.284Z,100913.32
2018-04-14T09:47:40.791Z,100912.11
2018-04-14T09:48:43.344Z,100915.27
2018-04-14T09:49:45.894Z,100924.09
2018-04-14T09:50:48.383Z,100922.31
2018-04-14T09:51:50.924Z,100917.94
2018-04-14T09:52:53.701Z,100917.66
2018-04-14T09:53:56.274Z,100917.66
2018-04-14T09:54:58.889Z,100921.39
2018-04-14T09:56:01.423Z,100915.07
2018-04-14T09:57:03.949Z,100911.10
2018-04-14T09:58:06.430Z,100918.55
2018-04-14T09:59:09.585Z,100914.02
2018-04-14T10:00:27.141Z,100921.47
2018-04-14T10:01:30.028Z,100914.75
2018-04-14T10:02:38.219Z,100917.25
2018-04-14T10:03:40.773Z,100917.25
2018-04-14T10:04:43.351Z,100915.47
2018-04-14T10:05:47.406Z,100916.61
2018-04-14T10:06:50.017Z,100912.31
2018-04-14T10:07:52.533Z,100912.72
2018-04-14T10:08:55.301Z,100915.31
2018-04-14T10:09:57.941Z,100908.42
2018-04-14T10:11:03.667Z,100906.08
2018-04-14T10:12:06.151Z,100904.54
2018-04-14T10:13:08.684Z,100905.52
2018-04-14T10:14:11.229Z,100902.59
2018-04-14T10:15:13.728Z,100902.03
2018-04-14T10:16:16.236Z,100907.53
2018-04-14T10:17:18.746Z,100899.84
2018-04-14T10:18:21.239Z,100893.93
2018-04-14T10:19:23.739Z,100899.44
2018-04-14T10:20:26.255Z,100900.66
2018-04-14T10:21:28.763Z,100901.63
2018-04-14T10:22:31.253Z,100903.56
2018-04-14T10:23:33.771Z,100907.38
2018-04-14T10:24:36.297Z,100902.27
2018-04-14T10:25:38.812Z,100902.95
2018-04-14T10:26:42.234Z,100902.63
2018-04-14T10:27:44.898Z,100902.06
2018-04-14T10:28:47.423Z,100902.30
2018-04-14T10:29:51.663Z,100897.20
2018-04-14T10:30:54.188Z,100894.85
2018-04-14T10:31:58.217Z,100897.20
2018-04-14T10:33:00.811Z,100896.47
2018-04-14T10:34:03.966Z,100893.88
2018-04-14T10:35:06.683Z,100893.72
2018-04-14T10:36:10.650Z,100890.56
2018-04-14T10:37:13.414Z,100891.37
2018-04-14T10:38:15.965Z,100893.55
2018-04-14T10:39:18.471Z,100888.86
2018-04-14T10:40:21.031Z,100892.18
2018-04-14T10:41:23.702Z,100892.02
2018-04-14T10:42:26.332Z,100893.63
2018-04-14T10:43:29.029Z,100894.05
2018-04-14T10:44:31.622Z,100883.42
2018-04-14T10:45:34.121Z,100884.23
2018-04-14T10:46:36.611Z,100884.89
2018-04-14T10:47:39.091Z,100887.23
2018-04-14T10:48:41.581Z,100885.45
2018-04-14T10:49:44.183Z,100886.67
2018-04-14T10:50:46.693Z,100888.05
2018-04-14T10:51:49.217Z,100894.77
2018-04-14T10:52:51.705Z,100891.45
2018-04-14T10:53:54.432Z,100889.09
2018-04-14T10:54:59.240Z,100889.09
2018-04-14T10:56:01.783Z,100890.72
2018-04-14T10:57:04.281Z,100887.16
2018-04-14T10:58:06.786Z,100886.58
2018-04-14T10:59:09.277Z,100885.20
2018-04-14T11:00:11.821Z,100884.23
2018-04-14T11:01:14.304Z,100886.98
2018-04-14T11:02:16.801Z,100885.20
2018-04-14T11:03:19.309Z,100885.20
2018-04-14T11:04:21.873Z,100884.40
2018-04-14T11:05:24.415Z,100885.20
2018-04-14T11:06:26.944Z,100885.61
2018-04-14T11:07:29.433Z,100889.02
2018-04-14T11:08:31.953Z,100880.34
2018-04-14T11:09:34.465Z,100886.27
2018-04-14T11:10:36.981Z,100879.38
2018-04-14T11:11:39.471Z,100887.07
2018-04-14T11:12:42.045Z,100886.94
2018-04-14T11:13:44.605Z,100890.50
2018-04-14T11:14:47.090Z,100893.09
2018-04-14T11:15:49.696Z,100890.75
2018-04-14T11:16:52.202Z,100883.21
2018-04-14T11:17:54.712Z,100888.40
2018-04-14T11:18:57.195Z,100889.77
2018-04-14T11:19:59.699Z,100887.02
2018-04-14T11:21:02.224Z,100887.13
2018-04-14T11:22:04.729Z,100887.53
2018-04-14T11:23:07.235Z,100884.62
2018-04-14T11:24:09.725Z,100887.13
2018-04-14T11:25:12.237Z,100879.03
2018-04-14T11:26:14.754Z,100879.03
2018-04-14T11:27:17.241Z,100877.37
2018-04-14T11:28:19.755Z,100881.91
2018-04-14T11:29:22.270Z,100886.32
2018-04-14T11:30:24.780Z,100883.00
2018-04-14T11:31:27.319Z,100880.64
2018-04-14T11:32:29.816Z,100881.86
2018-04-14T11:33:32.296Z,100885.59
2018-04-14T11:34:34.812Z,100880.89
2018-04-14T11:35:37.329Z,100879.11
2018-04-14T11:36:39.826Z,100880.08
2018-04-14T11:37:42.380Z,100883.64
2018-04-14T11:38:44.873Z,100882.27
2018-04-14T11:39:47.365Z,100876.19
2018-04-14T11:40:49.865Z,100877.00
2018-04-14T11:41:52.402Z,100880.56
2018-04-14T11:42:54.895Z,100875.30
2018-04-14T11:43:57.375Z,100876.84
2018-04-14T11:44:59.891Z,100870.35
2018-04-14T11:46:02.465Z,100876.84
2018-04-14T11:47:05.086Z,100875.78
2018-04-14T11:48:07.644Z,100877.33
2018-04-14T11:49:10.147Z,100880.64
2018-04-14T11:50:12.725Z,100879.27
2018-04-14T11:51:15.215Z,100887.38
2018-04-14T11:52:17.725Z,100884.37
2018-04-14T11:53:20.203Z,100878.86
2018-04-14T11:54:22.712Z,100881.45
2018-04-14T11:55:25.253Z,100880.08
2018-04-14T11:56:27.793Z,100879.52